Shenlong Spirit — C6XA2 — position and weather

sailwx.info

Track history (hours):
 
Tides and Currents Weather Stations Pressure Air Temp Water Temp Dewpoint Dewpoint Depression Visibility Wind Speed Wind Dir Waves Ship Positions

Shenlong Spirit

Last reported at 2018-Feb-22 05:12 UTC. Time now 2018-Feb-25 01:53 UTC.
Position N 01°13' E 103°29'.

Length 275 m; draft 9.3 m.

Type: Tanker. MMSI: 309504000.

Date/timePositionNaut miles runAvg speedWind from/ knotsBaromVisibWave heightAir tempDewpointWater temp
2018-Feb-22 05:12N 01°13' E 103°29'210.3
2018-Feb-22 04:59N 01°13' E 103°31'510.8
2018-Feb-22 04:30N 01°12' E 103°36'510.2
2018-Feb-22 04:00N 01°10' E 103°41'510.0
2018-Feb-22 03:30N 01°10' E 103°46'712.5
2018-Feb-22 02:59N 01°12' E 103°52'510.7
2018-Feb-22 02:29N 01°14' E 103°57'6 0.1
2018-Feb-20 00:32N 01°15' E 104°03'2 9.1
2018-Feb-20 00:22N 01°15' E 104°02'3 9.1
2018-Feb-20 00:00N 01°14' E 103°59'4 7.1
2018-Feb-19 23:27N 01°14' E 103°55'1 0.9
2018-Feb-19 22:36N 01°15' E 103°54'0 0.0
2018-Feb-19 21:18N 01°15' E 103°54'0 0.0
2018-Feb-19 20:54N 01°15' E 103°54'0 0.0
2018-Feb-19 13:06N 01°15' E 103°54'0 0.3
2018-Feb-19 12:54N 01°15' E 103°54'0 0.0
2018-Feb-19 06:06N 01°15' E 103°54'0 0.1
2018-Feb-19 05:48N 01°15' E 103°54'0 0.0
2018-Feb-19 05:30N 01°15' E 103°54'0 0.0
2018-Feb-19 03:48N 01°15' E 103°54'0 0.0
2018-Feb-19 03:18N 01°15' E 103°54'0 0.0
2018-Feb-19 02:48N 01°15' E 103°54'0 0.0
2018-Feb-19 02:24N 01°15' E 103°54'0 0.1
2018-Feb-19 01:48N 01°15' E 103°54'0 0.0
2018-Feb-19 00:42N 01°15' E 103°54'0 0.0
2018-Feb-19 00:24N 01°15' E 103°54'0 0.0
2018-Feb-18 20:12N 01°15' E 103°54'0 0.0
2018-Feb-18 05:12N 01°15' E 103°54'0 0.3
2018-Feb-18 05:00N 01°15' E 103°54'0 0.0
2018-Feb-18 04:30N 01°15' E 103°54'0 0.0
2018-Feb-18 00:54N 01°15' E 103°54'0 0.0
2018-Feb-18 00:30N 01°15' E 103°54'0 0.0
2018-Feb-17 23:54N 01°15' E 103°54'0 0.0
2018-Feb-17 18:54N 01°15' E 103°54'0 0.0
2018-Feb-17 18:30N 01°15' E 103°54'0 0.0
2018-Feb-17 00:55N 01°15' E 103°54'1 1.3
2018-Feb-17 00:27N 01°14' E 103°54'  
Track history (hours):
 
Tides and Currents Weather Stations Pressure Air Temp Water Temp Dewpoint Dewpoint Depression Visibility Wind Speed Wind Dir Waves Ship Positions

Shenlong Spirit

Last reported at 2018-Feb-22 05:12 UTC. Time now 2018-Feb-25 01:53 UTC.
Position N 01°13' E 103°29'.

Length 275 m; draft 9.3 m.

Type: Tanker. MMSI: 309504000.

Date/timePositionNaut miles runAvg speedWind from/ knotsBaromVisibWave heightAir tempDewpointWater temp
2018-Feb-22 05:12N 01°13' E 103°29'210.3
2018-Feb-22 04:59N 01°13' E 103°31'510.8
2018-Feb-22 04:30N 01°12' E 103°36'510.2
2018-Feb-22 04:00N 01°10' E 103°41'510.0
2018-Feb-22 03:30N 01°10' E 103°46'712.5
2018-Feb-22 02:59N 01°12' E 103°52'510.7
2018-Feb-22 02:29N 01°14' E 103°57'6 0.1
2018-Feb-20 00:32N 01°15' E 104°03'2 9.1
2018-Feb-20 00:22N 01°15' E 104°02'3 9.1
2018-Feb-20 00:00N 01°14' E 103°59'4 7.1
2018-Feb-19 23:27N 01°14' E 103°55'1 0.9
2018-Feb-19 22:36N 01°15' E 103°54'0 0.0
2018-Feb-19 21:18N 01°15' E 103°54'0 0.0
2018-Feb-19 20:54N 01°15' E 103°54'0 0.0
2018-Feb-19 13:06N 01°15' E 103°54'0 0.3
2018-Feb-19 12:54N 01°15' E 103°54'0 0.0
2018-Feb-19 06:06N 01°15' E 103°54'0 0.1
2018-Feb-19 05:48N 01°15' E 103°54'0 0.0
2018-Feb-19 05:30N 01°15' E 103°54'0 0.0
2018-Feb-19 03:48N 01°15' E 103°54'0 0.0
2018-Feb-19 03:18N 01°15' E 103°54'0 0.0
2018-Feb-19 02:48N 01°15' E 103°54'0 0.0
2018-Feb-19 02:24N 01°15' E 103°54'0 0.1
2018-Feb-19 01:48N 01°15' E 103°54'0 0.0
2018-Feb-19 00:42N 01°15' E 103°54'0 0.0
2018-Feb-19 00:24N 01°15' E 103°54'0 0.0
2018-Feb-18 20:12N 01°15' E 103°54'0 0.0
2018-Feb-18 05:12N 01°15' E 103°54'0 0.3
2018-Feb-18 05:00N 01°15' E 103°54'0 0.0
2018-Feb-18 04:30N 01°15' E 103°54'0 0.0
2018-Feb-18 00:54N 01°15' E 103°54'0 0.0
2018-Feb-18 00:30N 01°15' E 103°54'0 0.0
2018-Feb-17 23:54N 01°15' E 103°54'0 0.0
2018-Feb-17 18:54N 01°15' E 103°54'0 0.0
2018-Feb-17 18:30N 01°15' E 103°54'0 0.0
2018-Feb-17 00:55N 01°15' E 103°54'1 1.3
2018-Feb-17 00:27N 01°14' E 103°54'  

Dump ship's entire track history